Hauptseite
METAR-TAF:

METAR-TAF

Flughäfen :

Ajaccio, Frankreich

Flughafen Ajaccio

Breite: 41-55N, Länge: 008-48E, Höhe: 6 m

Beobachtung

Neuester Wetterbericht von vor 27 Minuten, um 09:30 UTC
Wind 8 kt aus Südwest
Temperatur 20°C
Luftfeuchtigkeit 64%
Luftdruck 1025 hPa
Sichtweite 10 km oder mehr
keine Wolken unter 1500 m und keine Kumulonimbus oder Gewitterwolken

METAR: LFKJ 190930Z AUTO 22008KT CAVOK 20/13 Q1025 NOSIG

Zeit: 11:57 (09:57 UTC)

Prognose

Neuester Wetterbericht von vor 1 Stunde und 57 Minuten, um 08:00 UTC
Gültige Prognose vom 19 um 09 UTC bis 20 um 09 UTC
Wind 6 kt aus West/Südwest
Sichtweite 10 km oder mehr
Leicht bewölkt in der Höhe von 5000 ft
Übergehend zu
vom 19 um 17 UTC bis 19 um 18 UTC
Wind 4 kt aus Nordost

TAF: LFKJ 190800Z 1909/2009 24006KT 9999 FEW050 BECMG 1917/1918 05004KT

Wetterbeobachtungen und Prognosen von mehr als 4000 Flughäfen (METAR und TAF Bericht).

Die verfügbaren Stationen werden durch gelbe und rote Markierungen auf der Karte dargestellt.

Führen Sie die Maus auf sie, um den Namen der Station zu sehen.

Darauf klicken, um die Beobachtung von Wetterbeobachtungen und Prognosen zu sehen.

Um die Karte zu ändern : klicken Sie auf den grünen Tasten mit einem schwarzen Kreuz Zum Vergrößern, auf den grünen Button mit einem Gedankenstrich zu verkleinern, oder auf die grünen Pfeile für benachbarte Karten.


METAR-TAF: